createdAt,value
2023-01-03T00:01:43.015Z,30.25
2023-01-03T00:04:10.232Z,30.80
2023-01-03T00:06:45.494Z,36.40
2023-01-03T00:09:14.028Z,26.73
2023-01-03T00:11:41.591Z,29.23
2023-01-03T00:14:09.516Z,27.05
2023-01-03T00:16:36.127Z,25.87
2023-01-03T00:19:11.263Z,27.75
2023-01-03T00:21:38.247Z,28.77
2023-01-03T00:24:05.337Z,26.25
2023-01-03T00:26:32.104Z,28.30
2023-01-03T00:28:59.063Z,27.27
2023-01-03T00:31:25.551Z,27.75
2023-01-03T00:33:52.106Z,31.40
2023-01-03T00:36:19.017Z,29.10
2023-01-03T00:38:45.516Z,28.65
2023-01-03T00:41:14.907Z,29.50
2023-01-03T00:43:43.003Z,28.55
2023-01-03T00:46:11.129Z,35.05
2023-01-03T00:48:38.181Z,31.25
2023-01-03T00:51:18.981Z,29.00
2023-01-03T00:53:47.212Z,29.80
2023-01-03T00:56:15.769Z,31.95
2023-01-03T00:58:42.927Z,37.00
2023-01-03T01:01:15.033Z,32.60
2023-01-03T01:03:44.926Z,31.02
2023-01-03T01:06:24.058Z,35.93
2023-01-03T01:08:53.102Z,37.85
2023-01-03T01:11:20.533Z,38.00
2023-01-03T01:13:47.735Z,38.83
2023-01-03T01:16:18.386Z,42.95
2023-01-03T01:18:47.223Z,42.37
2023-01-03T01:21:19.320Z,44.17
2023-01-03T01:23:46.676Z,42.30
2023-01-03T01:26:15.600Z,44.88
2023-01-03T01:28:42.768Z,44.38
2023-01-03T01:31:11.394Z,54.87
2023-01-03T01:33:37.780Z,47.50
2023-01-03T01:36:19.631Z,49.70
2023-01-03T01:38:47.803Z,56.28
2023-01-03T01:41:17.357Z,53.08
2023-01-03T01:43:59.445Z,57.47
2023-01-03T01:46:29.313Z,45.60
2023-01-03T01:49:00.109Z,61.67
2023-01-03T01:51:29.374Z,60.83
2023-01-03T01:53:57.044Z,48.90
2023-01-03T01:56:51.345Z,52.60
2023-01-03T01:59:17.863Z,51.95
2023-01-03T02:01:47.698Z,54.80
2023-01-03T02:04:21.810Z,60.13
2023-01-03T02:06:49.149Z,73.25
2023-01-03T02:09:15.888Z,62.67
2023-01-03T02:11:59.818Z,75.93
2023-01-03T02:14:44.940Z,78.65
2023-01-03T02:17:34.966Z,76.20
2023-01-03T02:20:19.987Z,84.65
2023-01-03T02:22:55.546Z,93.47
2023-01-03T02:25:50.936Z,80.38
2023-01-03T02:28:39.436Z,93.10
2023-01-03T02:31:14.652Z,87.35
2023-01-03T02:34:04.186Z,86.93
2023-01-03T02:37:00.143Z,91.57
2023-01-03T02:39:51.702Z,96.20
2023-01-03T02:42:45.668Z,90.53
2023-01-03T02:45:32.358Z,72.93
2023-01-03T02:48:09.611Z,82.72
2023-01-03T02:50:45.259Z,81.50
2023-01-03T02:53:14.417Z,81.63
2023-01-03T02:55:43.480Z,103.80
2023-01-03T02:58:16.655Z,88.22
2023-01-03T03:00:47.560Z,96.50
2023-01-03T03:03:19.406Z,88.03
2023-01-03T03:05:53.359Z,84.20
2023-01-03T03:08:19.905Z,95.50
2023-01-03T03:10:47.663Z,85.85
2023-01-03T03:13:32.463Z,99.82
2023-01-03T03:16:09.446Z,91.07
2023-01-03T03:18:38.972Z,64.97
2023-01-03T03:21:08.734Z,71.82
2023-01-03T03:23:39.308Z,66.20
2023-01-03T03:26:25.735Z,61.13
2023-01-03T03:28:58.416Z,57.33
2023-01-03T03:31:30.827Z,61.78
2023-01-03T03:34:00.322Z,58.20
2023-01-03T03:36:56.226Z,52.75
2023-01-03T03:39:24.274Z,51.38
2023-01-03T03:41:54.543Z,60.20
2023-01-03T03:44:40.185Z,60.03
2023-01-03T03:47:24.599Z,57.55
2023-01-03T03:49:54.558Z,57.22
2023-01-03T03:52:26.672Z,63.35
2023-01-03T03:55:16.261Z,60.40
2023-01-03T03:58:01.216Z,62.10
2023-01-03T04:00:31.968Z,59.08
2023-01-03T04:03:01.136Z,59.08
2023-01-03T04:05:33.631Z,57.78
2023-01-03T04:08:00.253Z,57.23
2023-01-03T04:10:28.336Z,54.95
2023-01-03T04:12:56.871Z,59.10
2023-01-03T04:15:23.394Z,64.20
2023-01-03T04:17:49.900Z,65.40
2023-01-03T04:20:16.676Z,69.10
2023-01-03T04:22:43.169Z,59.50
2023-01-03T04:25:09.644Z,59.22
2023-01-03T04:27:36.381Z,62.28
2023-01-03T04:30:04.526Z,69.70
2023-01-03T04:32:31.054Z,63.00
2023-01-03T04:34:57.523Z,66.95
2023-01-03T04:37:24.145Z,66.28
2023-01-03T04:39:50.634Z,71.80
2023-01-03T04:42:17.273Z,66.78
2023-01-03T04:44:43.732Z,64.67
2023-01-03T04:47:10.187Z,65.40
2023-01-03T04:49:36.625Z,66.95
2023-01-03T04:52:03.075Z,67.53
2023-01-03T04:54:29.675Z,75.85
2023-01-03T04:56:56.150Z,67.40
2023-01-03T04:59:22.808Z,65.35
2023-01-03T05:01:49.393Z,67.50
2023-01-03T05:04:16.017Z,62.40
2023-01-03T05:06:42.544Z,56.03
2023-01-03T05:09:09.077Z,68.47
2023-01-03T05:11:35.671Z,67.63
2023-01-03T05:14:02.228Z,60.42
2023-01-03T05:16:28.762Z,70.80
2023-01-03T05:18:56.370Z,71.18
2023-01-03T05:21:23.420Z,74.37
2023-01-03T05:23:50.068Z,68.22
2023-01-03T05:26:19.578Z,72.55
2023-01-03T05:28:50.674Z,68.35
2023-01-03T05:31:17.238Z,68.03
2023-01-03T05:33:43.852Z,61.73
2023-01-03T05:36:11.122Z,62.90
2023-01-03T05:38:38.144Z,58.63
2023-01-03T05:41:05.669Z,55.63
2023-01-03T05:43:32.250Z,62.88
2023-01-03T05:45:58.853Z,54.10
2023-01-03T05:48:25.337Z,53.50
2023-01-03T05:50:52.230Z,53.63
2023-01-03T05:53:18.809Z,44.78
2023-01-03T05:55:45.282Z,43.85
2023-01-03T05:58:12.679Z,44.90
2023-01-03T06:00:39.390Z,43.25
2023-01-03T06:03:05.968Z,40.83
2023-01-03T06:05:32.536Z,39.78
2023-01-03T06:08:02.144Z,44.53
2023-01-03T06:10:28.942Z,41.17
2023-01-03T06:12:55.455Z,35.35
2023-01-03T06:15:22.344Z,36.60
2023-01-03T06:17:49.005Z,35.80
2023-01-03T06:20:15.788Z,35.78
2023-01-03T06:22:42.273Z,33.27
2023-01-03T06:25:09.177Z,37.85
2023-01-03T06:27:35.773Z,34.88
2023-01-03T06:30:02.535Z,32.28
2023-01-03T06:32:30.021Z,30.45
2023-01-03T06:34:56.548Z,32.70
2023-01-03T06:37:23.261Z,34.47
2023-01-03T06:39:49.806Z,31.13
2023-01-03T06:42:16.400Z,33.53
2023-01-03T06:44:42.993Z,35.10
2023-01-03T06:47:10.314Z,37.03
2023-01-03T06:49:36.832Z,31.85
2023-01-03T06:52:05.945Z,38.80
2023-01-03T06:54:35.326Z,34.63
2023-01-03T06:57:02.083Z,34.47
2023-01-03T06:59:28.692Z,35.50
2023-01-03T07:01:55.702Z,37.63
2023-01-03T07:04:24.159Z,38.80
2023-01-03T07:06:51.119Z,38.92
2023-01-03T07:09:18.047Z,35.03
2023-01-03T07:11:44.933Z,41.87
2023-01-03T07:14:12.562Z,38.03
2023-01-03T07:16:42.272Z,39.88
2023-01-03T07:19:12.223Z,39.88
2023-01-03T07:21:38.698Z,36.72
2023-01-03T07:24:07.049Z,40.73
2023-01-03T07:26:35.041Z,40.45
2023-01-03T07:29:04.824Z,36.70
2023-01-03T07:31:31.606Z,40.53
2023-01-03T07:33:58.743Z,44.88
2023-01-03T07:36:25.407Z,41.97
2023-01-03T07:38:52.139Z,38.47
2023-01-03T07:41:18.632Z,41.78
2023-01-03T07:43:48.230Z,40.20
2023-01-03T07:46:24.855Z,41.60
2023-01-03T07:48:54.852Z,46.83
2023-01-03T07:51:22.444Z,42.80
2023-01-03T07:53:53.508Z,51.20
2023-01-03T07:56:21.787Z,53.88
2023-01-03T07:58:49.456Z,49.35
2023-01-03T08:01:19.070Z,54.53
2023-01-03T08:03:46.751Z,57.10
2023-01-03T08:06:16.865Z,59.35
2023-01-03T08:08:44.225Z,57.97
2023-01-03T08:11:12.395Z,61.53
2023-01-03T08:13:39.776Z,64.37
2023-01-03T08:16:10.109Z,64.25
2023-01-03T08:18:38.688Z,64.93
2023-01-03T08:21:05.878Z,68.60
2023-01-03T08:23:32.515Z,67.55
2023-01-03T08:26:04.726Z,64.67
2023-01-03T08:28:31.711Z,70.80
2023-01-03T08:31:02.123Z,69.97
2023-01-03T08:33:34.748Z,73.75
2023-01-03T08:36:04.340Z,66.20
2023-01-03T08:38:35.751Z,71.83
2023-01-03T08:41:05.796Z,68.55
2023-01-03T08:43:35.355Z,64.90
2023-01-03T08:46:05.400Z,71.28
2023-01-03T08:48:32.189Z,65.45
2023-01-03T08:50:58.952Z,63.00
2023-01-03T08:53:25.508Z,71.97
2023-01-03T08:55:52.269Z,66.25
2023-01-03T08:58:18.930Z,71.75
2023-01-03T09:00:45.457Z,71.32
2023-01-03T09:03:12.342Z,69.77
2023-01-03T09:05:40.092Z,79.30
2023-01-03T09:08:07.027Z,75.07
2023-01-03T09:10:33.698Z,69.28
2023-01-03T09:13:01.926Z,69.18
2023-01-03T09:15:29.576Z,74.00
2023-01-03T09:17:56.250Z,72.28
2023-01-03T09:20:23.127Z,73.38
2023-01-03T09:22:49.725Z,76.72
2023-01-03T09:25:16.359Z,88.40
2023-01-03T09:27:47.068Z,67.47
2023-01-03T09:30:16.097Z,65.13
2023-01-03T09:32:42.940Z,70.75
2023-01-03T09:35:09.952Z,70.43
2023-01-03T09:37:36.490Z,82.13
2023-01-03T09:40:04.465Z,79.47
2023-01-03T09:42:31.164Z,69.30
2023-01-03T09:44:57.708Z,75.10
2023-01-03T09:47:25.864Z,76.85
2023-01-03T09:50:26.553Z,75.53
2023-01-03T09:52:44.761Z,80.03
2023-01-03T09:55:53.210Z,74.72
2023-01-03T09:58:20.045Z,67.90
2023-01-03T10:00:52.945Z,76.47
2023-01-03T10:03:33.064Z,71.13
2023-01-03T10:06:10.788Z,68.37
2023-01-03T10:08:58.650Z,69.75
2023-01-03T10:11:35.114Z,69.63
2023-01-03T10:14:26.617Z,60.08
2023-01-03T10:17:06.197Z,63.55
2023-01-03T10:20:11.431Z,64.50
2023-01-03T10:22:39.490Z,58.78
2023-01-03T10:25:14.023Z,54.53
2023-01-03T10:27:49.437Z,52.25
2023-01-03T10:30:19.724Z,43.70
2023-01-03T10:33:14.854Z,42.63
2023-01-03T10:35:41.380Z,43.33
2023-01-03T10:38:08.174Z,41.70
2023-01-03T10:40:56.076Z,42.05
2023-01-03T10:43:33.671Z,37.97
2023-01-03T10:46:20.121Z,36.27
2023-01-03T10:51:58.124Z,38.33
2023-01-03T10:54:34.025Z,35.22
2023-01-03T10:57:00.771Z,32.25
2023-01-03T10:59:30.087Z,33.23
2023-01-03T11:01:56.815Z,27.70
2023-01-03T11:04:24.185Z,26.30
2023-01-03T11:07:03.658Z,26.15
2023-01-03T11:09:47.006Z,22.45
2023-01-03T11:12:33.591Z,22.43
2023-01-03T11:15:00.272Z,25.75
2023-01-03T11:17:29.271Z,21.88
2023-01-03T11:19:56.635Z,23.98
2023-01-03T11:22:48.963Z,21.50
2023-01-03T11:25:33.109Z,19.37
2023-01-03T11:28:32.504Z,22.75
2023-01-03T11:31:08.298Z,20.48
2023-01-03T11:34:03.803Z,21.02
2023-01-03T11:36:50.434Z,22.45
2023-01-03T11:39:29.254Z,21.43
2023-01-03T11:42:10.917Z,19.27
2023-01-03T11:45:03.041Z,18.73
2023-01-03T11:47:58.915Z,17.17
2023-01-03T11:50:59.522Z,19.10
2023-01-03T11:53:50.587Z,18.33
2023-01-03T11:56:34.037Z,17.23
2023-01-03T11:59:09.370Z,15.88
2023-01-03T12:01:47.987Z,14.18
2023-01-03T12:04:36.519Z,15.68
2023-01-03T12:07:45.107Z,19.00
2023-01-03T12:10:29.960Z,16.90
2023-01-03T12:13:14.529Z,18.15
2023-01-03T12:16:02.083Z,14.48
2023-01-03T12:18:43.356Z,17.33
2023-01-03T12:21:21.764Z,16.27
2023-01-03T12:24:05.297Z,16.40
2023-01-03T12:26:34.229Z,15.25
2023-01-03T12:29:12.557Z,13.45
2023-01-03T12:32:03.915Z,12.70
2023-01-03T12:35:15.411Z,14.73
2023-01-03T12:37:45.058Z,15.80
2023-01-03T12:40:52.684Z,13.15
2023-01-03T12:43:58.604Z,16.58
2023-01-03T12:46:41.227Z,14.07
2023-01-03T12:49:17.203Z,14.03
2023-01-03T12:51:43.988Z,15.23
2023-01-03T12:54:16.200Z,15.65
2023-01-03T12:57:09.522Z,12.30
2023-01-03T12:59:55.048Z,15.10
2023-01-03T13:02:35.230Z,15.40
2023-01-03T13:05:20.490Z,14.93
2023-01-03T13:07:53.473Z,15.40
2023-01-03T13:10:24.509Z,15.45
2023-01-03T13:12:52.369Z,13.57
2023-01-03T13:15:36.166Z,15.47
2023-01-03T13:18:31.574Z,16.45
2023-01-03T13:20:58.357Z,13.65
2023-01-03T13:23:37.033Z,12.80
2023-01-03T13:26:03.521Z,12.90
2023-01-03T13:28:40.636Z,13.60
2023-01-03T13:31:16.090Z,15.07
2023-01-03T13:33:48.539Z,16.10
2023-01-03T13:36:15.611Z,15.05
2023-01-03T13:38:42.506Z,15.98
2023-01-03T13:41:40.157Z,14.87
2023-01-03T13:44:14.604Z,14.13
2023-01-03T13:46:42.457Z,12.52
2023-01-03T13:49:19.449Z,17.90
2023-01-03T13:51:51.652Z,19.20
2023-01-03T13:54:18.265Z,17.63
2023-01-03T13:56:44.918Z,17.10
2023-01-03T13:59:25.595Z,15.15
2023-01-03T14:02:17.178Z,15.90
2023-01-03T14:05:07.914Z,14.10
2023-01-03T14:07:59.066Z,13.47
2023-01-03T14:10:32.667Z,14.48
2023-01-03T14:13:30.134Z,14.50
2023-01-03T14:16:13.348Z,16.25
2023-01-03T14:18:45.269Z,13.95
2023-01-03T14:21:25.430Z,14.13
2023-01-03T14:24:00.840Z,13.38
2023-01-03T14:26:31.595Z,18.90
2023-01-03T14:28:58.537Z,12.75
2023-01-03T14:31:28.697Z,14.50
2023-01-03T14:34:00.599Z,12.83
2023-01-03T14:36:28.178Z,13.65
2023-01-03T14:39:01.870Z,14.50
2023-01-03T14:41:33.397Z,13.85
2023-01-03T14:44:06.328Z,12.60
2023-01-03T14:46:35.047Z,12.37
2023-01-03T14:49:04.809Z,13.00
2023-01-03T14:51:34.732Z,13.18
2023-01-03T14:54:03.188Z,15.60
2023-01-03T14:56:30.520Z,13.18
2023-01-03T14:58:57.867Z,14.47
2023-01-03T15:01:25.003Z,12.02
2023-01-03T15:03:52.380Z,12.90
2023-01-03T15:06:31.604Z,14.65
2023-01-03T15:09:12.876Z,12.82
2023-01-03T15:11:43.205Z,13.43
2023-01-03T15:14:13.339Z,14.35
2023-01-03T15:16:41.693Z,14.82
2023-01-03T15:19:17.673Z,15.43
2023-01-03T15:21:44.397Z,15.65
2023-01-03T15:24:20.047Z,10.90
2023-01-03T15:26:49.093Z,13.07
2023-01-03T15:29:21.058Z,14.93
2023-01-03T15:31:47.557Z,15.18
2023-01-03T15:34:25.766Z,16.50
2023-01-03T15:37:00.026Z,16.40
2023-01-03T15:39:36.820Z,12.65
2023-01-03T15:42:35.032Z,13.73
2023-01-03T15:44:50.233Z,13.48
2023-01-03T15:47:19.043Z,14.60
2023-01-03T15:49:50.529Z,13.87
2023-01-03T15:52:17.142Z,17.08
2023-01-03T15:54:45.053Z,16.92
2023-01-03T15:57:18.623Z,16.38
2023-01-03T15:59:45.143Z,11.38
2023-01-03T16:02:19.908Z,13.30
2023-01-03T16:04:47.797Z,15.93
2023-01-03T16:07:14.934Z,15.85
2023-01-03T16:09:41.655Z,17.48
2023-01-03T16:12:27.336Z,14.73
2023-01-03T16:14:54.337Z,15.10
2023-01-03T16:17:27.278Z,18.48
2023-01-03T16:19:55.149Z,13.57
2023-01-03T16:22:34.424Z,16.75
2023-01-03T16:25:01.919Z,16.17
2023-01-03T16:27:28.414Z,22.70
2023-01-03T16:29:54.982Z,14.35
2023-01-03T16:32:25.220Z,16.40
2023-01-03T16:34:52.098Z,16.10
2023-01-03T16:37:18.629Z,15.98
2023-01-03T16:39:48.229Z,18.90
2023-01-03T16:42:15.435Z,13.82
2023-01-03T16:44:44.315Z,15.40
2023-01-03T16:47:15.871Z,17.98
2023-01-03T16:49:44.750Z,17.73
2023-01-03T16:52:16.042Z,15.10
2023-01-03T16:54:43.710Z,17.15
2023-01-03T16:57:20.879Z,16.27
2023-01-03T16:59:48.488Z,15.05
2023-01-03T17:02:15.460Z,16.45
2023-01-03T17:04:42.348Z,14.77
2023-01-03T17:07:29.457Z,18.70
2023-01-03T17:09:55.978Z,15.02
2023-01-03T17:12:23.504Z,16.75
2023-01-03T17:14:51.494Z,15.65
2023-01-03T17:17:21.694Z,17.53
2023-01-03T17:20:07.319Z,19.15
2023-01-03T17:22:34.150Z,16.30
2023-01-03T17:25:00.846Z,16.90
2023-01-03T17:27:32.677Z,15.40
2023-01-03T17:30:04.567Z,15.20
2023-01-03T17:32:31.302Z,16.55
2023-01-03T17:34:58.044Z,18.25
2023-01-03T17:37:25.571Z,16.05
2023-01-03T17:39:55.548Z,15.32
2023-01-03T17:42:22.749Z,14.97
2023-01-03T17:44:51.029Z,17.58
2023-01-03T17:47:21.161Z,16.50
2023-01-03T17:49:48.178Z,19.38
2023-01-03T17:52:25.767Z,17.05
2023-01-03T17:54:52.341Z,14.30
2023-01-03T17:57:18.937Z,17.80
2023-01-03T17:59:45.523Z,18.40
2023-01-03T18:02:19.921Z,16.98
2023-01-03T18:05:14.695Z,18.33
2023-01-03T18:07:34.103Z,19.70
2023-01-03T18:10:00.770Z,14.50
2023-01-03T18:12:27.428Z,18.05
2023-01-03T18:14:54.074Z,14.35
2023-01-03T18:17:34.322Z,20.75
2023-01-03T18:20:01.072Z,12.93
2023-01-03T18:22:28.519Z,14.05
2023-01-03T18:24:57.047Z,13.55
2023-01-03T18:27:27.205Z,15.65
2023-01-03T18:29:54.150Z,16.77
2023-01-03T18:32:31.780Z,12.27
2023-01-03T18:34:59.062Z,13.70
2023-01-03T18:37:34.358Z,16.15
2023-01-03T18:40:02.409Z,13.23
2023-01-03T18:42:29.086Z,12.23
2023-01-03T18:44:55.641Z,13.90
2023-01-03T18:47:22.160Z,15.23
2023-01-03T18:49:48.613Z,16.33
2023-01-03T18:52:33.135Z,12.27
2023-01-03T18:55:00.178Z,13.57
2023-01-03T18:57:27.255Z,11.20
2023-01-03T18:59:54.235Z,10.73
2023-01-03T19:02:22.412Z,15.27
2023-01-03T19:04:51.834Z,14.77
2023-01-03T19:07:32.894Z,15.10
2023-01-03T19:10:00.008Z,13.83
2023-01-03T19:12:27.189Z,16.13
2023-01-03T19:14:54.206Z,15.82
2023-01-03T19:17:21.131Z,12.25
2023-01-03T19:19:47.964Z,14.57
2023-01-03T19:22:28.103Z,15.00
2023-01-03T19:24:59.584Z,18.27
2023-01-03T19:27:41.684Z,12.30
2023-01-03T19:30:18.542Z,13.73
2023-01-03T19:32:51.163Z,13.65
2023-01-03T19:35:18.573Z,12.60
2023-01-03T19:37:45.290Z,12.25
2023-01-03T19:40:17.362Z,11.63
2023-01-03T19:42:58.636Z,10.80
2023-01-03T19:45:30.441Z,11.57
2023-01-03T19:48:00.042Z,13.70
2023-01-03T19:50:29.021Z,12.05
2023-01-03T19:52:55.862Z,9.40
2023-01-03T19:55:34.071Z,14.15
2023-01-03T19:58:11.502Z,12.50
2023-01-03T20:00:38.039Z,12.67
2023-01-03T20:03:10.305Z,14.00
2023-01-03T20:05:36.829Z,11.00
2023-01-03T20:08:12.067Z,11.35
2023-01-03T20:10:41.627Z,11.40
2023-01-03T20:13:17.774Z,10.97
2023-01-03T20:15:46.403Z,11.07
2023-01-03T20:18:29.135Z,17.75
2023-01-03T20:21:00.192Z,10.23
2023-01-03T20:23:31.764Z,10.57
2023-01-03T20:25:58.758Z,13.40
2023-01-03T20:28:26.537Z,17.00
2023-01-03T20:30:53.197Z,10.68
2023-01-03T20:33:19.775Z,11.05
2023-01-03T20:38:33.457Z,11.00
2023-01-03T20:41:00.073Z,11.38
2023-01-03T20:43:26.797Z,12.50
2023-01-03T20:45:56.166Z,12.70
2023-01-03T20:48:25.976Z,12.35
2023-01-03T20:50:53.404Z,13.93
2023-01-03T20:53:27.064Z,11.75
2023-01-03T20:55:54.204Z,10.02
2023-01-03T21:01:19.329Z,9.88
2023-01-03T21:03:46.099Z,11.23
2023-01-03T21:06:18.954Z,11.50
2023-01-03T21:08:45.631Z,12.57
2023-01-03T21:11:12.352Z,12.02
2023-01-03T21:13:39.189Z,14.23
2023-01-03T21:16:19.899Z,11.13
2023-01-03T21:18:46.511Z,11.73
2023-01-03T21:21:18.951Z,13.50
2023-01-03T21:23:45.701Z,10.45
2023-01-03T21:26:12.263Z,13.00
2023-01-03T21:28:38.987Z,12.70
2023-01-03T21:31:05.869Z,10.85
2023-01-03T21:33:32.664Z,10.70
2023-01-03T21:35:59.176Z,12.73
2023-01-03T21:38:25.948Z,11.82
2023-01-03T21:40:52.555Z,10.93
2023-01-03T21:43:18.988Z,12.13
2023-01-03T21:45:48.078Z,10.20
2023-01-03T21:48:16.762Z,11.60
2023-01-03T21:50:47.715Z,12.38
2023-01-03T21:53:15.713Z,11.93
2023-01-03T21:55:42.455Z,10.32
2023-01-03T21:58:13.904Z,9.95
2023-01-03T22:00:41.094Z,10.05
2023-01-03T22:03:11.167Z,9.80
2023-01-03T22:05:37.683Z,13.23
2023-01-03T22:08:04.343Z,10.95
2023-01-03T22:10:31.298Z,11.80
2023-01-03T22:13:02.066Z,10.60
2023-01-03T22:15:28.801Z,12.38
2023-01-03T22:17:55.624Z,13.43
2023-01-03T22:20:25.132Z,12.20
2023-01-03T22:22:52.447Z,11.75
2023-01-03T22:25:22.289Z,9.20
2023-01-03T22:27:49.321Z,11.32
2023-01-03T22:30:18.137Z,11.37
2023-01-03T22:32:45.651Z,11.13
2023-01-03T22:35:14.257Z,11.88
2023-01-03T22:37:40.808Z,10.60
2023-01-03T22:40:10.723Z,11.52
2023-01-03T22:42:37.455Z,13.20
2023-01-03T22:45:05.175Z,11.73
2023-01-03T22:47:31.813Z,12.55
2023-01-03T22:49:58.478Z,8.18
2023-01-03T22:52:25.390Z,11.27
2023-01-03T22:54:51.958Z,11.73
2023-01-03T22:57:18.460Z,12.07
2023-01-03T22:59:45.101Z,11.73
2023-01-03T23:02:11.825Z,12.85
2023-01-03T23:04:38.617Z,11.45
2023-01-03T23:07:05.139Z,12.30
2023-01-03T23:09:31.563Z,11.98
2023-01-03T23:11:58.048Z,15.30
2023-01-03T23:14:26.553Z,10.88
2023-01-03T23:16:54.156Z,13.75
2023-01-03T23:19:22.920Z,9.67
2023-01-03T23:21:49.680Z,10.73
2023-01-03T23:24:19.036Z,11.85
2023-01-03T23:26:45.700Z,14.98
2023-01-03T23:29:12.744Z,12.20
2023-01-03T23:31:39.271Z,12.77
2023-01-03T23:34:05.707Z,12.48
2023-01-03T23:36:32.225Z,12.25
2023-01-03T23:38:58.982Z,10.80
2023-01-03T23:41:25.847Z,13.73
2023-01-03T23:43:53.636Z,10.70
2023-01-03T23:46:23.312Z,10.63
2023-01-03T23:48:57.417Z,10.45
2023-01-03T23:51:24.334Z,10.43
2023-01-03T23:53:51.656Z,10.15
2023-01-03T23:56:20.684Z,11.47
2023-01-03T23:58:47.724Z,10.43
